EJU7695 LPPT-GVAC
Flight info
| Callsign | EJU7695 |
|---|---|
| Flight time | N/A |
| Altitude | 37000 |
| Route | ULVOT DCT BEXAL DCT SAMAR N873 IPERA DCT DIMKI DIMKI1S |
| Aircraft | A20N/M-SDE2E3FGHIJ1RWXYZ/LB1G1 |
Departure
| Time | 2026-05-07 02:59 |
|---|---|
| Airport | Lisbon Humberto Delgado Airport (LPPT) |
Arrival
| Time | N/A |
|---|---|
| Airport | Amílcar Cabral International Airport (GVAC) |
| Time | Latitude | Longitude | Altitude | Speed | Heading |
|---|---|---|---|---|---|
| 2026-05-07 02:39 | 38.76716 | -9.13004 | 333 ft | 0 kts | 77° |
| 2026-05-07 02:50 | 38.76716 | -9.13006 | 333 ft | 1 kts | 77° |
| 2026-05-07 02:51 | 38.76712 | -9.13024 | 333 ft | 2 kts | 76° |
| 2026-05-07 02:51 | 38.76709 | -9.13043 | 333 ft | 2 kts | 77° |
| 2026-05-07 02:51 | 38.76705 | -9.13061 | 333 ft | 1 kts | 77° |
| 2026-05-07 02:51 | 38.76702 | -9.13073 | 333 ft | 2 kts | 54° |
| 2026-05-07 02:52 | 38.76690 | -9.13085 | 333 ft | 2 kts | 13° |
| 2026-05-07 02:52 | 38.76681 | -9.13086 | 333 ft | 1 kts | 348° |
| 2026-05-07 02:52 | 38.76674 | -9.13083 | 333 ft | 0 kts | 347° |
| 2026-05-07 02:52 | 38.76675 | -9.13083 | 333 ft | 0 kts | 347° |
| 2026-05-07 02:55 | 38.76675 | -9.13084 | 333 ft | 0 kts | 347° |
| 2026-05-07 02:55 | 38.76709 | -9.13093 | 333 ft | 7 kts | 347° |
| 2026-05-07 02:55 | 38.76763 | -9.13111 | 333 ft | 8 kts | 334° |
| 2026-05-07 02:55 | 38.76779 | -9.13178 | 333 ft | 8 kts | 258° |
| 2026-05-07 02:56 | 38.76767 | -9.13250 | 335 ft | 9 kts | 258° |
| 2026-05-07 02:56 | 38.76745 | -9.13357 | 337 ft | 14 kts | 243° |
| 2026-05-07 02:56 | 38.76674 | -9.13445 | 339 ft | 13 kts | 229° |
| 2026-05-07 02:56 | 38.76644 | -9.13553 | 340 ft | 13 kts | 256° |
| 2026-05-07 02:57 | 38.76625 | -9.13670 | 341 ft | 13 kts | 259° |
| 2026-05-07 02:57 | 38.76605 | -9.13788 | 341 ft | 13 kts | 257° |
| 2026-05-07 02:57 | 38.76586 | -9.13906 | 341 ft | 13 kts | 259° |
| 2026-05-07 02:57 | 38.76550 | -9.14024 | 339 ft | 15 kts | 229° |
| 2026-05-07 02:58 | 38.76495 | -9.14142 | 337 ft | 16 kts | 271° |
| 2026-05-07 02:58 | 38.76528 | -9.14281 | 337 ft | 16 kts | 291° |
| 2026-05-07 02:58 | 38.76569 | -9.14399 | 336 ft | 6 kts | 297° |
| 2026-05-07 02:58 | 38.76614 | -9.14405 | 337 ft | 7 kts | 22° |
| 2026-05-07 02:59 | 38.76763 | -9.14325 | 339 ft | 54 kts | 21° |
| 2026-05-07 02:59 | 38.77329 | -9.14023 | 350 ft | 119 kts | 22° |
| 2026-05-07 02:59 | 38.78251 | -9.13522 | 455 ft | 160 kts | 21° |
| 2026-05-07 02:59 | 38.79255 | -9.12967 | 1047 ft | 159 kts | 25° |
| 2026-05-07 03:00 | 38.80212 | -9.12276 | 1669 ft | 161 kts | 30° |
| 2026-05-07 03:00 | 38.81158 | -9.11541 | 2283 ft | 163 kts | 29° |
| 2026-05-07 03:00 | 38.82145 | -9.10799 | 2808 ft | 167 kts | 28° |
| 2026-05-07 03:00 | 38.83153 | -9.10082 | 3392 ft | 167 kts | 27° |
| 2026-05-07 03:01 | 38.84208 | -9.09374 | 3809 ft | 179 kts | 26° |
| 2026-05-07 03:01 | 38.85367 | -9.08611 | 4178 ft | 196 kts | 26° |
| 2026-05-07 03:01 | 38.86628 | -9.07780 | 4559 ft | 213 kts | 27° |
| 2026-05-07 03:01 | 38.87842 | -9.06563 | 4810 ft | 239 kts | 55° |
| 2026-05-07 03:02 | 38.88450 | -9.04522 | 5224 ft | 259 kts | 84° |
| 2026-05-07 03:02 | 38.88162 | -9.02193 | 5810 ft | 273 kts | 114° |
| 2026-05-07 03:02 | 38.87236 | -9.00065 | 6669 ft | 275 kts | 119° |
| 2026-05-07 03:02 | 38.86127 | -8.98085 | 7441 ft | 280 kts | 136° |
| 2026-05-07 03:03 | 38.84473 | -8.96829 | 8189 ft | 285 kts | 163° |
| 2026-05-07 03:03 | 38.82510 | -8.96678 | 8949 ft | 289 kts | 191° |
| 2026-05-07 03:03 | 38.80606 | -8.97530 | 9718 ft | 292 kts | 202° |
| 2026-05-07 03:03 | 38.78760 | -8.98568 | 10388 ft | 297 kts | 203° |
| 2026-05-07 03:04 | 38.76824 | -8.99662 | 10756 ft | 313 kts | 202° |
| 2026-05-07 03:04 | 38.74778 | -9.00797 | 11175 ft | 326 kts | 202° |
| 2026-05-07 03:04 | 38.72690 | -9.01938 | 11866 ft | 330 kts | 202° |
| 2026-05-07 03:04 | 38.70590 | -9.03075 | 12582 ft | 332 kts | 202° |
| 2026-05-07 03:05 | 38.68466 | -9.04218 | 13253 ft | 335 kts | 201° |
| 2026-05-07 03:05 | 38.66317 | -9.05370 | 13908 ft | 338 kts | 201° |
| 2026-05-07 03:05 | 38.64131 | -9.06540 | 14557 ft | 341 kts | 201° |
| 2026-05-07 03:05 | 38.61956 | -9.07702 | 15184 ft | 345 kts | 201° |
| 2026-05-07 03:06 | 38.59740 | -9.08885 | 15804 ft | 348 kts | 201° |
| 2026-05-07 03:06 | 38.57497 | -9.10081 | 16413 ft | 351 kts | 201° |
| 2026-05-07 03:06 | 38.55274 | -9.11266 | 16999 ft | 354 kts | 201° |
| 2026-05-07 03:06 | 38.52993 | -9.12481 | 17582 ft | 357 kts | 201° |
| 2026-05-07 03:07 | 38.50679 | -9.13712 | 18156 ft | 360 kts | 201° |
| 2026-05-07 03:07 | 38.48380 | -9.14935 | 18709 ft | 363 kts | 201° |
| 2026-05-07 03:07 | 38.46053 | -9.16171 | 19252 ft | 366 kts | 201° |
| 2026-05-07 03:07 | 38.43722 | -9.17470 | 19782 ft | 370 kts | 205° |
| 2026-05-07 03:08 | 38.41473 | -9.19041 | 20301 ft | 373 kts | 211° |
| 2026-05-07 03:08 | 38.39334 | -9.20915 | 20811 ft | 377 kts | 216° |
| 2026-05-07 03:08 | 38.37224 | -9.22960 | 21320 ft | 380 kts | 217° |
| 2026-05-07 03:08 | 38.35138 | -9.25010 | 21805 ft | 383 kts | 217° |
| 2026-05-07 03:09 | 38.33039 | -9.27071 | 22287 ft | 385 kts | 217° |
| 2026-05-07 03:09 | 38.30922 | -9.29143 | 22759 ft | 388 kts | 216° |
| 2026-05-07 03:09 | 38.28788 | -9.31226 | 23216 ft | 390 kts | 216° |
| 2026-05-07 03:09 | 38.26632 | -9.33326 | 23661 ft | 393 kts | 216° |
| 2026-05-07 03:10 | 38.24461 | -9.35436 | 24096 ft | 396 kts | 216° |
| 2026-05-07 03:10 | 38.22272 | -9.37562 | 24521 ft | 398 kts | 216° |
| 2026-05-07 03:10 | 38.20060 | -9.39708 | 24936 ft | 401 kts | 216° |
| 2026-05-07 03:10 | 38.17835 | -9.41865 | 25341 ft | 403 kts | 216° |
| 2026-05-07 03:11 | 38.15600 | -9.44030 | 25735 ft | 406 kts | 216° |
| 2026-05-07 03:11 | 38.13379 | -9.46180 | 26115 ft | 408 kts | 216° |
| 2026-05-07 03:11 | 38.11108 | -9.48376 | 26490 ft | 411 kts | 216° |
| 2026-05-07 03:11 | 38.08831 | -9.50576 | 26853 ft | 413 kts | 216° |
| 2026-05-07 03:12 | 38.06545 | -9.52782 | 27208 ft | 415 kts | 216° |
| 2026-05-07 03:12 | 38.04254 | -9.54992 | 27549 ft | 417 kts | 216° |
| 2026-05-07 03:12 | 38.01932 | -9.57230 | 27886 ft | 420 kts | 216° |
| 2026-05-07 03:12 | 37.99655 | -9.59472 | 28208 ft | 422 kts | 218° |
| 2026-05-07 03:13 | 37.97402 | -9.61857 | 28531 ft | 424 kts | 219° |
| 2026-05-07 03:13 | 37.95123 | -9.64291 | 28848 ft | 426 kts | 219° |
| 2026-05-07 03:13 | 37.92864 | -9.66704 | 29151 ft | 428 kts | 218° |
| 2026-05-07 03:13 | 37.90600 | -9.69120 | 29446 ft | 430 kts | 218° |
| 2026-05-07 03:14 | 37.88303 | -9.71567 | 29737 ft | 432 kts | 218° |
| 2026-05-07 03:14 | 37.86019 | -9.73998 | 30017 ft | 434 kts | 218° |
| 2026-05-07 03:14 | 37.81383 | -9.78927 | 30566 ft | 438 kts | 218° |
| 2026-05-07 03:15 | 37.79052 | -9.81401 | 30825 ft | 440 kts | 218° |
| 2026-05-07 03:15 | 37.76702 | -9.83894 | 31080 ft | 441 kts | 218° |
| 2026-05-07 03:15 | 37.74345 | -9.86393 | 31328 ft | 443 kts | 218° |
| 2026-05-07 03:15 | 37.72009 | -9.88866 | 31571 ft | 445 kts | 218° |
| 2026-05-07 03:16 | 37.69643 | -9.91370 | 31880 ft | 444 kts | 218° |